sensor_id;sensor_type;location;lat;lon;timestamp;temperature;humidity
16174;DHT22;14031;50.158;8.626;2022-09-14T00:01:20;19.00;99.90
16174;DHT22;14031;50.158;8.626;2022-09-14T00:03:51;19.00;99.90
16174;DHT22;14031;50.158;8.626;2022-09-14T00:06:17;18.90;99.90
16174;DHT22;14031;50.158;8.626;2022-09-14T00:08:44;19.00;99.90
16174;DHT22;14031;50.158;8.626;2022-09-14T00:11:19;19.00;99.90
16174;DHT22;14031;50.158;8.626;2022-09-14T00:13:46;19.00;99.90
16174;DHT22;14031;50.158;8.626;2022-09-14T00:16:15;19.00;99.90
16174;DHT22;14031;50.158;8.626;2022-09-14T00:18:43;19.00;99.90
16174;DHT22;14031;50.158;8.626;2022-09-14T00:21:11;19.00;99.90
16174;DHT22;14031;50.158;8.626;2022-09-14T00:23:40;19.00;99.90
16174;DHT22;14031;50.158;8.626;2022-09-14T00:26:08;19.00;99.90
16174;DHT22;14031;50.158;8.626;2022-09-14T00:28:39;19.00;99.90
16174;DHT22;14031;50.158;8.626;2022-09-14T00:31:06;18.90;99.90
16174;DHT22;14031;50.158;8.626;2022-09-14T00:33:34;19.00;99.90
16174;DHT22;14031;50.158;8.626;2022-09-14T00:36:06;18.90;99.90
16174;DHT22;14031;50.158;8.626;2022-09-14T00:38:36;18.90;99.90
16174;DHT22;14031;50.158;8.626;2022-09-14T00:41:06;18.90;99.90
16174;DHT22;14031;50.158;8.626;2022-09-14T00:43:52;18.90;99.90
16174;DHT22;14031;50.158;8.626;2022-09-14T00:46:19;18.90;99.90
16174;DHT22;14031;50.158;8.626;2022-09-14T00:48:46;18.90;99.90
16174;DHT22;14031;50.158;8.626;2022-09-14T00:51:14;18.90;99.90
16174;DHT22;14031;50.158;8.626;2022-09-14T00:53:42;18.90;99.90
16174;DHT22;14031;50.158;8.626;2022-09-14T00:56:09;18.80;99.90
16174;DHT22;14031;50.158;8.626;2022-09-14T00:58:37;18.90;99.90
16174;DHT22;14031;50.158;8.626;2022-09-14T01:01:03;18.90;99.90
16174;DHT22;14031;50.158;8.626;2022-09-14T01:03:30;19.00;99.90
16174;DHT22;14031;50.158;8.626;2022-09-14T01:06:04;18.90;99.90
16174;DHT22;14031;50.158;8.626;2022-09-14T01:11:40;18.90;99.90
16174;DHT22;14031;50.158;8.626;2022-09-14T01:14:14;18.90;99.90
16174;DHT22;14031;50.158;8.626;2022-09-14T01:16:47;19.00;99.90
16174;DHT22;14031;50.158;8.626;2022-09-14T01:19:22;18.90;99.90
16174;DHT22;14031;50.158;8.626;2022-09-14T01:21:51;18.90;99.90
16174;DHT22;14031;50.158;8.626;2022-09-14T01:24:26;18.90;99.90
16174;DHT22;14031;50.158;8.626;2022-09-14T01:27:20;18.90;99.90
16174;DHT22;14031;50.158;8.626;2022-09-14T01:29:50;18.90;99.90
16174;DHT22;14031;50.158;8.626;2022-09-14T01:32:23;18.90;99.90
16174;DHT22;14031;50.158;8.626;2022-09-14T01:34:56;18.90;99.90
16174;DHT22;14031;50.158;8.626;2022-09-14T01:37:28;19.00;99.90
16174;DHT22;14031;50.158;8.626;2022-09-14T01:39:59;18.90;99.90
16174;DHT22;14031;50.158;8.626;2022-09-14T01:42:28;18.90;99.90
16174;DHT22;14031;50.158;8.626;2022-09-14T01:44:59;18.90;99.90
16174;DHT22;14031;50.158;8.626;2022-09-14T01:47:30;18.90;99.90
16174;DHT22;14031;50.158;8.626;2022-09-14T01:50:03;18.90;99.90
16174;DHT22;14031;50.158;8.626;2022-09-14T01:52:37;18.90;99.90
16174;DHT22;14031;50.158;8.626;2022-09-14T01:55:08;18.90;99.90
16174;DHT22;14031;50.158;8.626;2022-09-14T01:57:41;18.90;99.90
16174;DHT22;14031;50.158;8.626;2022-09-14T02:00:11;18.90;99.90
16174;DHT22;14031;50.158;8.626;2022-09-14T02:02:45;18.90;99.90
16174;DHT22;14031;50.158;8.626;2022-09-14T02:05:17;18.90;99.90
16174;DHT22;14031;50.158;8.626;2022-09-14T02:07:45;18.90;99.90
16174;DHT22;14031;50.158;8.626;2022-09-14T02:10:14;18.90;99.90
16174;DHT22;14031;50.158;8.626;2022-09-14T02:12:43;18.80;99.90
16174;DHT22;14031;50.158;8.626;2022-09-14T02:15:12;18.90;99.90
16174;DHT22;14031;50.158;8.626;2022-09-14T02:17:40;18.80;99.90
16174;DHT22;14031;50.158;8.626;2022-09-14T02:20:12;18.90;99.90
16174;DHT22;14031;50.158;8.626;2022-09-14T02:22:39;18.80;99.90
16174;DHT22;14031;50.158;8.626;2022-09-14T02:25:07;18.90;99.90
16174;DHT22;14031;50.158;8.626;2022-09-14T02:27:33;18.80;99.90
16174;DHT22;14031;50.158;8.626;2022-09-14T02:30:02;18.90;99.90
16174;DHT22;14031;50.158;8.626;2022-09-14T02:32:33;18.80;99.90
16174;DHT22;14031;50.158;8.626;2022-09-14T02:35:06;18.80;99.90
16174;DHT22;14031;50.158;8.626;2022-09-14T02:37:43;18.90;99.90
16174;DHT22;14031;50.158;8.626;2022-09-14T02:40:20;18.80;99.90
16174;DHT22;14031;50.158;8.626;2022-09-14T02:42:54;18.80;99.90
16174;DHT22;14031;50.158;8.626;2022-09-14T02:45:29;18.80;99.90
16174;DHT22;14031;50.158;8.626;2022-09-14T02:48:03;18.80;99.90
16174;DHT22;14031;50.158;8.626;2022-09-14T02:50:39;18.80;99.90
16174;DHT22;14031;50.158;8.626;2022-09-14T02:53:12;18.80;99.90
16174;DHT22;14031;50.158;8.626;2022-09-14T02:55:45;18.80;99.90
16174;DHT22;14031;50.158;8.626;2022-09-14T02:58:14;18.90;99.90
16174;DHT22;14031;50.158;8.626;2022-09-14T03:00:43;18.80;99.90
16174;DHT22;14031;50.158;8.626;2022-09-14T03:03:12;18.80;99.90
16174;DHT22;14031;50.158;8.626;2022-09-14T03:05:39;18.80;99.90
16174;DHT22;14031;50.158;8.626;2022-09-14T03:08:06;18.80;99.90
16174;DHT22;14031;50.158;8.626;2022-09-14T03:10:34;18.80;99.90
16174;DHT22;14031;50.158;8.626;2022-09-14T03:13:01;18.80;99.90
16174;DHT22;14031;50.158;8.626;2022-09-14T03:15:29;18.80;99.90
16174;DHT22;14031;50.158;8.626;2022-09-14T03:17:57;18.80;99.90
16174;DHT22;14031;50.158;8.626;2022-09-14T03:20:26;18.90;99.90
16174;DHT22;14031;50.158;8.626;2022-09-14T03:22:53;18.80;99.90
16174;DHT22;14031;50.158;8.626;2022-09-14T03:25:20;18.70;99.90
16174;DHT22;14031;50.158;8.626;2022-09-14T03:27:49;18.90;99.90
16174;DHT22;14031;50.158;8.626;2022-09-14T03:30:16;18.80;99.90
16174;DHT22;14031;50.158;8.626;2022-09-14T03:32:43;18.80;99.90
16174;DHT22;14031;50.158;8.626;2022-09-14T03:35:11;18.80;99.90
16174;DHT22;14031;50.158;8.626;2022-09-14T03:37:39;18.70;99.90
16174;DHT22;14031;50.158;8.626;2022-09-14T03:40:08;18.80;99.90
16174;DHT22;14031;50.158;8.626;2022-09-14T03:42:35;18.80;99.90
16174;DHT22;14031;50.158;8.626;2022-09-14T03:45:02;18.80;99.90
16174;DHT22;14031;50.158;8.626;2022-09-14T03:47:29;18.80;99.90
16174;DHT22;14031;50.158;8.626;2022-09-14T03:49:56;18.80;99.90
16174;DHT22;14031;50.158;8.626;2022-09-14T03:52:24;18.80;99.90
16174;DHT22;14031;50.158;8.626;2022-09-14T03:54:51;18.80;99.90
16174;DHT22;14031;50.158;8.626;2022-09-14T03:57:17;18.80;99.90
16174;DHT22;14031;50.158;8.626;2022-09-14T03:59:44;18.80;99.90
16174;DHT22;14031;50.158;8.626;2022-09-14T04:02:11;18.80;99.90
16174;DHT22;14031;50.158;8.626;2022-09-14T04:04:38;18.80;99.90
16174;DHT22;14031;50.158;8.626;2022-09-14T04:07:05;18.80;99.90
16174;DHT22;14031;50.158;8.626;2022-09-14T04:09:33;18.80;99.90
16174;DHT22;14031;50.158;8.626;2022-09-14T04:12:00;18.80;99.90
16174;DHT22;14031;50.158;8.626;2022-09-14T04:14:27;18.80;99.90
16174;DHT22;14031;50.158;8.626;2022-09-14T04:16:53;18.80;99.90
16174;DHT22;14031;50.158;8.626;2022-09-14T04:19:20;18.80;99.90
16174;DHT22;14031;50.158;8.626;2022-09-14T04:21:47;18.80;99.90
16174;DHT22;14031;50.158;8.626;2022-09-14T04:24:13;18.80;99.90
16174;DHT22;14031;50.158;8.626;2022-09-14T04:26:42;18.80;99.90
16174;DHT22;14031;50.158;8.626;2022-09-14T04:29:10;18.80;99.90
16174;DHT22;14031;50.158;8.626;2022-09-14T04:31:37;18.80;99.90
16174;DHT22;14031;50.158;8.626;2022-09-14T04:34:04;18.80;99.90
16174;DHT22;14031;50.158;8.626;2022-09-14T04:36:31;18.80;99.90
16174;DHT22;14031;50.158;8.626;2022-09-14T04:38:59;18.80;99.90
16174;DHT22;14031;50.158;8.626;2022-09-14T04:41:27;18.80;99.90
16174;DHT22;14031;50.158;8.626;2022-09-14T04:43:56;18.80;99.90
16174;DHT22;14031;50.158;8.626;2022-09-14T04:46:24;18.80;99.90
16174;DHT22;14031;50.158;8.626;2022-09-14T04:48:52;18.80;99.90
16174;DHT22;14031;50.158;8.626;2022-09-14T04:51:20;18.80;99.90
16174;DHT22;14031;50.158;8.626;2022-09-14T04:53:49;18.80;99.90
16174;DHT22;14031;50.158;8.626;2022-09-14T04:56:17;18.80;99.90
16174;DHT22;14031;50.158;8.626;2022-09-14T04:58:46;18.80;99.90
16174;DHT22;14031;50.158;8.626;2022-09-14T05:01:22;18.80;99.90
16174;DHT22;14031;50.158;8.626;2022-09-14T05:03:50;18.80;99.90
16174;DHT22;14031;50.158;8.626;2022-09-14T05:06:18;18.70;99.90
16174;DHT22;14031;50.158;8.626;2022-09-14T05:08:46;18.80;99.90
16174;DHT22;14031;50.158;8.626;2022-09-14T05:11:14;18.80;99.90
16174;DHT22;14031;50.158;8.626;2022-09-14T05:13:42;18.80;99.90
16174;DHT22;14031;50.158;8.626;2022-09-14T05:16:10;18.80;99.90
16174;DHT22;14031;50.158;8.626;2022-09-14T05:18:41;18.80;99.90
16174;DHT22;14031;50.158;8.626;2022-09-14T05:21:10;18.70;99.90
16174;DHT22;14031;50.158;8.626;2022-09-14T05:23:37;18.80;99.90
16174;DHT22;14031;50.158;8.626;2022-09-14T05:26:05;18.70;99.90
16174;DHT22;14031;50.158;8.626;2022-09-14T05:28:33;18.70;99.90
16174;DHT22;14031;50.158;8.626;2022-09-14T05:31:03;18.70;99.90
16174;DHT22;14031;50.158;8.626;2022-09-14T05:33:29;18.80;99.90
16174;DHT22;14031;50.158;8.626;2022-09-14T05:36:00;18.70;99.90
16174;DHT22;14031;50.158;8.626;2022-09-14T05:38:28;18.70;99.90
16174;DHT22;14031;50.158;8.626;2022-09-14T05:40:55;18.70;99.90
16174;DHT22;14031;50.158;8.626;2022-09-14T05:43:21;18.70;99.90
16174;DHT22;14031;50.158;8.626;2022-09-14T05:45:48;18.80;99.90
16174;DHT22;14031;50.158;8.626;2022-09-14T05:48:16;18.80;99.90
16174;DHT22;14031;50.158;8.626;2022-09-14T05:50:42;18.80;99.90
16174;DHT22;14031;50.158;8.626;2022-09-14T05:53:11;18.80;99.90
16174;DHT22;14031;50.158;8.626;2022-09-14T05:55:37;18.80;99.90
16174;DHT22;14031;50.158;8.626;2022-09-14T05:58:04;18.80;99.90
16174;DHT22;14031;50.158;8.626;2022-09-14T06:00:31;18.90;99.90
16174;DHT22;14031;50.158;8.626;2022-09-14T06:02:57;18.80;99.90
16174;DHT22;14031;50.158;8.626;2022-09-14T06:05:24;18.80;99.90
16174;DHT22;14031;50.158;8.626;2022-09-14T06:07:52;18.80;99.90
16174;DHT22;14031;50.158;8.626;2022-09-14T06:10:21;18.80;99.90
16174;DHT22;14031;50.158;8.626;2022-09-14T06:12:47;18.80;99.90
16174;DHT22;14031;50.158;8.626;2022-09-14T06:15:14;18.80;99.90
16174;DHT22;14031;50.158;8.626;2022-09-14T06:17:41;18.80;99.90
16174;DHT22;14031;50.158;8.626;2022-09-14T06:20:09;18.80;99.90
16174;DHT22;14031;50.158;8.626;2022-09-14T06:22:35;18.80;99.90
16174;DHT22;14031;50.158;8.626;2022-09-14T06:25:02;18.90;99.90
16174;DHT22;14031;50.158;8.626;2022-09-14T06:27:30;18.80;99.90
16174;DHT22;14031;50.158;8.626;2022-09-14T06:29:57;18.90;99.90
16174;DHT22;14031;50.158;8.626;2022-09-14T06:32:24;18.90;99.90
16174;DHT22;14031;50.158;8.626;2022-09-14T06:34:51;18.90;99.90
16174;DHT22;14031;50.158;8.626;2022-09-14T06:37:18;18.90;99.90
16174;DHT22;14031;50.158;8.626;2022-09-14T06:39:45;19.00;99.90
16174;DHT22;14031;50.158;8.626;2022-09-14T06:42:12;18.90;99.90
16174;DHT22;14031;50.158;8.626;2022-09-14T06:44:40;19.00;99.90
16174;DHT22;14031;50.158;8.626;2022-09-14T06:47:06;19.00;99.90
16174;DHT22;14031;50.158;8.626;2022-09-14T06:49:33;19.00;99.90
16174;DHT22;14031;50.158;8.626;2022-09-14T06:52:00;18.90;99.90
16174;DHT22;14031;50.158;8.626;2022-09-14T06:54:27;19.00;99.90
16174;DHT22;14031;50.158;8.626;2022-09-14T06:56:54;19.00;99.90
16174;DHT22;14031;50.158;8.626;2022-09-14T06:59:21;19.00;99.90
16174;DHT22;14031;50.158;8.626;2022-09-14T07:01:49;19.00;99.90
16174;DHT22;14031;50.158;8.626;2022-09-14T07:04:16;19.00;99.90
16174;DHT22;14031;50.158;8.626;2022-09-14T07:06:45;19.00;99.90
16174;DHT22;14031;50.158;8.626;2022-09-14T07:09:12;19.00;99.90
16174;DHT22;14031;50.158;8.626;2022-09-14T07:11:40;19.00;99.90
16174;DHT22;14031;50.158;8.626;2022-09-14T07:14:07;19.10;99.90
16174;DHT22;14031;50.158;8.626;2022-09-14T07:16:35;19.10;99.90
16174;DHT22;14031;50.158;8.626;2022-09-14T07:19:06;19.10;99.90
16174;DHT22;14031;50.158;8.626;2022-09-14T07:21:34;19.10;99.90
16174;DHT22;14031;50.158;8.626;2022-09-14T07:24:01;19.20;99.90
16174;DHT22;14031;50.158;8.626;2022-09-14T07:26:29;19.30;99.90
16174;DHT22;14031;50.158;8.626;2022-09-14T07:28:59;19.40;99.90
16174;DHT22;14031;50.158;8.626;2022-09-14T07:31:28;19.50;99.90
16174;DHT22;14031;50.158;8.626;2022-09-14T07:33:58;19.60;99.90
16174;DHT22;14031;50.158;8.626;2022-09-14T07:36:28;19.70;99.90
16174;DHT22;14031;50.158;8.626;2022-09-14T07:38:55;19.80;99.90
16174;DHT22;14031;50.158;8.626;2022-09-14T07:41:24;19.80;99.90
16174;DHT22;14031;50.158;8.626;2022-09-14T07:43:53;19.90;99.90
16174;DHT22;14031;50.158;8.626;2022-09-14T07:46:20;19.90;99.90
16174;DHT22;14031;50.158;8.626;2022-09-14T07:48:48;20.10;99.90
16174;DHT22;14031;50.158;8.626;2022-09-14T07:51:14;20.10;99.90
16174;DHT22;14031;50.158;8.626;2022-09-14T07:53:43;20.20;99.90
16174;DHT22;14031;50.158;8.626;2022-09-14T07:56:11;20.30;99.90
16174;DHT22;14031;50.158;8.626;2022-09-14T07:58:40;20.30;99.90
16174;DHT22;14031;50.158;8.626;2022-09-14T08:01:09;20.40;99.90
16174;DHT22;14031;50.158;8.626;2022-09-14T08:03:37;20.40;99.90
16174;DHT22;14031;50.158;8.626;2022-09-14T08:06:07;20.30;99.90
16174;DHT22;14031;50.158;8.626;2022-09-14T08:08:37;20.30;99.90
16174;DHT22;14031;50.158;8.626;2022-09-14T08:11:07;20.30;99.90
16174;DHT22;14031;50.158;8.626;2022-09-14T08:13:36;20.30;99.90
16174;DHT22;14031;50.158;8.626;2022-09-14T08:16:04;20.30;99.90
16174;DHT22;14031;50.158;8.626;2022-09-14T08:18:32;20.20;99.90
16174;DHT22;14031;50.158;8.626;2022-09-14T08:21:02;20.10;99.90
16174;DHT22;14031;50.158;8.626;2022-09-14T08:23:29;20.10;99.90
16174;DHT22;14031;50.158;8.626;2022-09-14T08:26:01;20.00;99.90
16174;DHT22;14031;50.158;8.626;2022-09-14T08:28:29;20.00;99.90
16174;DHT22;14031;50.158;8.626;2022-09-14T08:31:01;19.90;99.90
16174;DHT22;14031;50.158;8.626;2022-09-14T08:33:29;19.90;99.90
16174;DHT22;14031;50.158;8.626;2022-09-14T08:35:56;19.90;99.90
16174;DHT22;14031;50.158;8.626;2022-09-14T08:38:23;19.90;99.90
16174;DHT22;14031;50.158;8.626;2022-09-14T08:40:49;19.90;99.90
16174;DHT22;14031;50.158;8.626;2022-09-14T08:43:17;19.90;99.90
16174;DHT22;14031;50.158;8.626;2022-09-14T08:45:47;20.00;99.90
16174;DHT22;14031;50.158;8.626;2022-09-14T08:48:19;20.10;99.90
16174;DHT22;14031;50.158;8.626;2022-09-14T08:50:49;20.00;99.90
16174;DHT22;14031;50.158;8.626;2022-09-14T08:53:18;20.10;99.90
16174;DHT22;14031;50.158;8.626;2022-09-14T08:55:49;20.10;99.90
16174;DHT22;14031;50.158;8.626;2022-09-14T08:58:28;20.10;99.90
16174;DHT22;14031;50.158;8.626;2022-09-14T09:01:01;20.10;99.90
16174;DHT22;14031;50.158;8.626;2022-09-14T09:03:51;20.20;99.90
16174;DHT22;14031;50.158;8.626;2022-09-14T09:06:25;20.20;99.90
16174;DHT22;14031;50.158;8.626;2022-09-14T09:09:01;20.30;99.90
16174;DHT22;14031;50.158;8.626;2022-09-14T09:11:35;20.30;99.90
16174;DHT22;14031;50.158;8.626;2022-09-14T09:14:09;20.40;99.90
16174;DHT22;14031;50.158;8.626;2022-09-14T09:16:41;20.40;99.90
16174;DHT22;14031;50.158;8.626;2022-09-14T09:19:15;20.30;99.90
16174;DHT22;14031;50.158;8.626;2022-09-14T09:21:44;20.30;99.90
16174;DHT22;14031;50.158;8.626;2022-09-14T09:24:19;20.30;99.90
16174;DHT22;14031;50.158;8.626;2022-09-14T09:26:50;20.40;99.90
16174;DHT22;14031;50.158;8.626;2022-09-14T09:29:17;20.40;99.90
16174;DHT22;14031;50.158;8.626;2022-09-14T09:31:49;20.40;99.90
16174;DHT22;14031;50.158;8.626;2022-09-14T09:34:21;20.50;99.90
16174;DHT22;14031;50.158;8.626;2022-09-14T09:36:50;20.60;99.90
16174;DHT22;14031;50.158;8.626;2022-09-14T09:39:17;20.60;99.90
16174;DHT22;14031;50.158;8.626;2022-09-14T09:41:46;20.70;99.90
16174;DHT22;14031;50.158;8.626;2022-09-14T09:44:14;20.80;99.90
16174;DHT22;14031;50.158;8.626;2022-09-14T09:46:47;20.80;99.90
16174;DHT22;14031;50.158;8.626;2022-09-14T09:49:19;20.80;99.90
16174;DHT22;14031;50.158;8.626;2022-09-14T09:51:47;20.90;99.90
16174;DHT22;14031;50.158;8.626;2022-09-14T09:54:22;20.90;99.90
16174;DHT22;14031;50.158;8.626;2022-09-14T09:56:52;21.00;99.90
16174;DHT22;14031;50.158;8.626;2022-09-14T09:59:29;21.00;99.90
16174;DHT22;14031;50.158;8.626;2022-09-14T10:02:20;21.10;99.90
16174;DHT22;14031;50.158;8.626;2022-09-14T10:04:59;21.20;99.90
16174;DHT22;14031;50.158;8.626;2022-09-14T10:07:27;21.30;99.90
16174;DHT22;14031;50.158;8.626;2022-09-14T10:09:59;21.30;99.90
16174;DHT22;14031;50.158;8.626;2022-09-14T10:12:27;21.30;99.90
16174;DHT22;14031;50.158;8.626;2022-09-14T10:15:16;21.40;99.90
16174;DHT22;14031;50.158;8.626;2022-09-14T10:18:16;21.40;99.90
16174;DHT22;14031;50.158;8.626;2022-09-14T10:20:47;21.30;99.90
16174;DHT22;14031;50.158;8.626;2022-09-14T10:23:32;21.20;99.90
16174;DHT22;14031;50.158;8.626;2022-09-14T10:26:33;21.10;99.90
16174;DHT22;14031;50.158;8.626;2022-09-14T10:29:18;21.10;99.90
16174;DHT22;14031;50.158;8.626;2022-09-14T10:31:47;21.10;99.90
16174;DHT22;14031;50.158;8.626;2022-09-14T10:34:18;21.00;99.90
16174;DHT22;14031;50.158;8.626;2022-09-14T10:36:50;21.00;99.90
16174;DHT22;14031;50.158;8.626;2022-09-14T10:39:21;21.00;99.90
16174;DHT22;14031;50.158;8.626;2022-09-14T10:41:54;21.10;99.90
16174;DHT22;14031;50.158;8.626;2022-09-14T10:44:42;21.10;99.90
16174;DHT22;14031;50.158;8.626;2022-09-14T10:47:33;21.10;99.90
16174;DHT22;14031;50.158;8.626;2022-09-14T10:50:16;21.20;99.90
16174;DHT22;14031;50.158;8.626;2022-09-14T10:52:55;21.20;99.90
16174;DHT22;14031;50.158;8.626;2022-09-14T10:55:30;21.10;99.90
16174;DHT22;14031;50.158;8.626;2022-09-14T10:58:11;21.10;99.90
16174;DHT22;14031;50.158;8.626;2022-09-14T11:01:01;21.00;99.90
16174;DHT22;14031;50.158;8.626;2022-09-14T11:03:42;21.10;99.90
16174;DHT22;14031;50.158;8.626;2022-09-14T11:06:24;21.10;99.90
16174;DHT22;14031;50.158;8.626;2022-09-14T11:08:56;21.20;99.90
16174;DHT22;14031;50.158;8.626;2022-09-14T11:11:35;21.20;99.90
16174;DHT22;14031;50.158;8.626;2022-09-14T11:14:12;21.30;99.90
16174;DHT22;14031;50.158;8.626;2022-09-14T11:16:55;21.40;99.90
16174;DHT22;14031;50.158;8.626;2022-09-14T11:19:31;21.30;99.90
16174;DHT22;14031;50.158;8.626;2022-09-14T11:22:04;21.30;99.90
16174;DHT22;14031;50.158;8.626;2022-09-14T11:24:39;21.30;99.90
16174;DHT22;14031;50.158;8.626;2022-09-14T11:27:11;21.30;99.90
16174;DHT22;14031;50.158;8.626;2022-09-14T11:29:45;21.30;99.90
16174;DHT22;14031;50.158;8.626;2022-09-14T11:32:18;21.30;99.90
16174;DHT22;14031;50.158;8.626;2022-09-14T11:34:49;21.30;99.90
16174;DHT22;14031;50.158;8.626;2022-09-14T11:37:26;21.30;99.90
16174;DHT22;14031;50.158;8.626;2022-09-14T11:40:02;21.30;99.90
16174;DHT22;14031;50.158;8.626;2022-09-14T11:42:34;21.30;99.90
16174;DHT22;14031;50.158;8.626;2022-09-14T11:45:08;21.20;99.90
16174;DHT22;14031;50.158;8.626;2022-09-14T11:47:43;21.10;99.90
16174;DHT22;14031;50.158;8.626;2022-09-14T11:50:18;21.10;99.90
16174;DHT22;14031;50.158;8.626;2022-09-14T11:52:49;21.20;99.90
16174;DHT22;14031;50.158;8.626;2022-09-14T11:55:20;21.30;99.90
16174;DHT22;14031;50.158;8.626;2022-09-14T11:57:47;21.30;99.90
16174;DHT22;14031;50.158;8.626;2022-09-14T12:00:42;21.40;99.90
16174;DHT22;14031;50.158;8.626;2022-09-14T12:03:15;21.40;99.90
16174;DHT22;14031;50.158;8.626;2022-09-14T12:05:43;21.50;99.90
16174;DHT22;14031;50.158;8.626;2022-09-14T12:08:39;21.50;99.90
16174;DHT22;14031;50.158;8.626;2022-09-14T12:11:25;21.60;99.90
16174;DHT22;14031;50.158;8.626;2022-09-14T12:14:20;21.70;99.90
16174;DHT22;14031;50.158;8.626;2022-09-14T12:17:14;21.60;99.90
16174;DHT22;14031;50.158;8.626;2022-09-14T12:19:43;21.70;99.90
16174;DHT22;14031;50.158;8.626;2022-09-14T12:22:30;21.80;99.90
16174;DHT22;14031;50.158;8.626;2022-09-14T12:25:00;22.00;99.90
16174;DHT22;14031;50.158;8.626;2022-09-14T12:27:29;22.10;99.90
16174;DHT22;14031;50.158;8.626;2022-09-14T12:29:57;22.30;99.90
16174;DHT22;14031;50.158;8.626;2022-09-14T12:32:26;22.40;99.90
16174;DHT22;14031;50.158;8.626;2022-09-14T12:37:57;22.50;99.90
16174;DHT22;14031;50.158;8.626;2022-09-14T12:40:36;22.60;99.90
16174;DHT22;14031;50.158;8.626;2022-09-14T12:46:38;22.60;99.90
16174;DHT22;14031;50.158;8.626;2022-09-14T12:49:25;22.60;99.90
16174;DHT22;14031;50.158;8.626;2022-09-14T12:51:54;22.50;99.90
16174;DHT22;14031;50.158;8.626;2022-09-14T12:54:28;22.50;99.90
16174;DHT22;14031;50.158;8.626;2022-09-14T12:57:15;22.60;99.90
16174;DHT22;14031;50.158;8.626;2022-09-14T12:59:50;22.50;99.90
16174;DHT22;14031;50.158;8.626;2022-09-14T13:02:54;22.50;99.90
16174;DHT22;14031;50.158;8.626;2022-09-14T13:05:27;22.40;99.90
16174;DHT22;14031;50.158;8.626;2022-09-14T13:07:55;22.30;99.90
16174;DHT22;14031;50.158;8.626;2022-09-14T13:10:24;22.20;99.90
16174;DHT22;14031;50.158;8.626;2022-09-14T13:12:55;22.10;99.90
16174;DHT22;14031;50.158;8.626;2022-09-14T13:15:24;22.00;99.90
16174;DHT22;14031;50.158;8.626;2022-09-14T13:17:59;21.90;99.90
16174;DHT22;14031;50.158;8.626;2022-09-14T13:20:28;21.90;99.90
16174;DHT22;14031;50.158;8.626;2022-09-14T13:22:55;21.90;99.90
16174;DHT22;14031;50.158;8.626;2022-09-14T13:25:30;21.90;99.90
16174;DHT22;14031;50.158;8.626;2022-09-14T13:28:02;22.00;99.90
16174;DHT22;14031;50.158;8.626;2022-09-14T13:30:31;22.10;99.90
16174;DHT22;14031;50.158;8.626;2022-09-14T13:32:58;22.20;99.90
16174;DHT22;14031;50.158;8.626;2022-09-14T13:35:31;22.30;99.90
16174;DHT22;14031;50.158;8.626;2022-09-14T13:38:04;22.30;99.90
16174;DHT22;14031;50.158;8.626;2022-09-14T13:40:32;22.30;99.90
16174;DHT22;14031;50.158;8.626;2022-09-14T13:43:00;22.20;99.90
16174;DHT22;14031;50.158;8.626;2022-09-14T13:45:27;22.10;99.90
16174;DHT22;14031;50.158;8.626;2022-09-14T13:47:54;22.00;99.90
16174;DHT22;14031;50.158;8.626;2022-09-14T13:50:22;21.90;99.90
16174;DHT22;14031;50.158;8.626;2022-09-14T13:52:50;21.80;99.90
16174;DHT22;14031;50.158;8.626;2022-09-14T13:55:22;21.80;99.90
16174;DHT22;14031;50.158;8.626;2022-09-14T13:58:13;21.70;99.90
16174;DHT22;14031;50.158;8.626;2022-09-14T14:00:49;21.70;99.90
16174;DHT22;14031;50.158;8.626;2022-09-14T14:03:32;21.70;99.90
16174;DHT22;14031;50.158;8.626;2022-09-14T14:06:04;21.70;99.90
16174;DHT22;14031;50.158;8.626;2022-09-14T14:08:33;21.70;99.90
16174;DHT22;14031;50.158;8.626;2022-09-14T14:11:04;21.60;99.90
16174;DHT22;14031;50.158;8.626;2022-09-14T14:13:34;21.60;99.90
16174;DHT22;14031;50.158;8.626;2022-09-14T14:16:14;21.50;99.90
16174;DHT22;14031;50.158;8.626;2022-09-14T14:18:47;21.40;99.90
16174;DHT22;14031;50.158;8.626;2022-09-14T14:21:22;21.40;99.90
16174;DHT22;14031;50.158;8.626;2022-09-14T14:23:51;21.30;99.90
16174;DHT22;14031;50.158;8.626;2022-09-14T14:26:21;21.30;99.90
16174;DHT22;14031;50.158;8.626;2022-09-14T14:28:52;21.20;99.90
16174;DHT22;14031;50.158;8.626;2022-09-14T14:31:21;21.20;99.90
16174;DHT22;14031;50.158;8.626;2022-09-14T14:33:51;21.10;99.90
16174;DHT22;14031;50.158;8.626;2022-09-14T14:36:19;21.10;99.90
16174;DHT22;14031;50.158;8.626;2022-09-14T14:38:46;21.00;99.90
16174;DHT22;14031;50.158;8.626;2022-09-14T14:41:15;21.00;99.90
16174;DHT22;14031;50.158;8.626;2022-09-14T14:43:43;20.90;99.90
16174;DHT22;14031;50.158;8.626;2022-09-14T14:46:12;20.90;99.90
16174;DHT22;14031;50.158;8.626;2022-09-14T14:48:40;20.90;99.90
16174;DHT22;14031;50.158;8.626;2022-09-14T14:51:10;20.90;99.90
16174;DHT22;14031;50.158;8.626;2022-09-14T14:53:38;20.90;99.90
16174;DHT22;14031;50.158;8.626;2022-09-14T14:56:05;20.90;99.90
16174;DHT22;14031;50.158;8.626;2022-09-14T14:58:31;20.80;99.90
16174;DHT22;14031;50.158;8.626;2022-09-14T15:00:58;20.80;99.90
16174;DHT22;14031;50.158;8.626;2022-09-14T15:03:26;20.80;99.90
16174;DHT22;14031;50.158;8.626;2022-09-14T15:05:53;20.80;99.90
16174;DHT22;14031;50.158;8.626;2022-09-14T15:08:20;20.80;99.90
16174;DHT22;14031;50.158;8.626;2022-09-14T15:10:47;20.80;99.90
16174;DHT22;14031;50.158;8.626;2022-09-14T15:13:14;20.80;99.90
16174;DHT22;14031;50.158;8.626;2022-09-14T15:15:41;20.90;99.90
16174;DHT22;14031;50.158;8.626;2022-09-14T15:18:09;20.90;99.90
16174;DHT22;14031;50.158;8.626;2022-09-14T15:20:37;21.00;99.90
16174;DHT22;14031;50.158;8.626;2022-09-14T15:23:04;21.00;99.90
16174;DHT22;14031;50.158;8.626;2022-09-14T15:25:31;21.10;99.90
16174;DHT22;14031;50.158;8.626;2022-09-14T15:27:58;21.10;99.90
16174;DHT22;14031;50.158;8.626;2022-09-14T15:30:24;21.10;99.90
16174;DHT22;14031;50.158;8.626;2022-09-14T15:32:51;21.20;99.90
16174;DHT22;14031;50.158;8.626;2022-09-14T15:35:18;21.20;99.90
16174;DHT22;14031;50.158;8.626;2022-09-14T15:37:46;21.20;99.90
16174;DHT22;14031;50.158;8.626;2022-09-14T15:40:14;21.30;99.90
16174;DHT22;14031;50.158;8.626;2022-09-14T15:42:41;21.40;99.90
16174;DHT22;14031;50.158;8.626;2022-09-14T15:45:08;21.50;99.90
16174;DHT22;14031;50.158;8.626;2022-09-14T15:47:35;21.70;99.90
16174;DHT22;14031;50.158;8.626;2022-09-14T15:50:03;21.70;99.90
16174;DHT22;14031;50.158;8.626;2022-09-14T15:52:30;21.80;99.90
16174;DHT22;14031;50.158;8.626;2022-09-14T15:55:01;21.80;99.90
16174;DHT22;14031;50.158;8.626;2022-09-14T15:57:28;21.80;99.90
16174;DHT22;14031;50.158;8.626;2022-09-14T15:59:55;21.90;99.90
16174;DHT22;14031;50.158;8.626;2022-09-14T16:02:21;21.90;99.90